Time;durP1;ratioP1;P1;durP2;ratioP2;P2;SDS_P1;SDS_P2;PMS_P1;PMS_P2;Temp;Humidity;BMP_temperature;BMP_pressure;BME280_temperature;BME280_humidity;BME280_pressure;Samples;Min_cycle;Max_cycle;Signal;HPM_P1;HPM_P2
2023/02/24 00:01:23;;;;;;;0.70;0.63;;;;;;;3.42;100.00;100108.81;4956258;28;20687;-73
2023/02/24 00:03:52;;;;;;;0.20;0.20;;;;;;;3.43;100.00;100102.31;4955544;28;20210;-73
2023/02/24 00:06:18;;;;;;;2.87;2.17;;;;;;;3.38;100.00;100098.84;4954550;28;20638;-73
2023/02/24 00:08:44;;;;;;;4.93;1.30;;;;;;;3.35;100.00;100096.69;4954278;28;20190;-72
2023/02/24 00:11:15;;;;;;;6.23;1.10;;;;;;;3.34;100.00;100086.97;4954952;28;20254;-70
2023/02/24 00:13:45;;;;;;;10.30;3.53;;;;;;;3.31;100.00;100091.00;4955046;28;20693;-70
2023/02/24 00:16:13;;;;;;;0.67;0.67;;;;;;;3.32;100.00;100087.22;4952817;28;20179;-70
2023/02/24 00:18:38;;;;;;;2.23;1.43;;;;;;;3.31;100.00;100085.59;4954601;28;20183;-70
2023/02/24 00:21:07;;;;;;;1.03;0.63;;;;;;;3.32;100.00;100087.22;4954442;28;20171;-72
2023/02/24 00:23:34;;;;;;;2.80;1.70;;;;;;;3.30;100.00;100083.97;4952737;28;20199;-70
2023/02/24 00:26:00;;;;;;;2.63;1.47;;;;;;;3.33;100.00;100080.75;4953759;28;20170;-70
2023/02/24 00:28:27;;;;;;;0.73;0.73;;;;;;;3.36;100.00;100076.72;4953927;29;20240;-70
2023/02/24 00:30:54;;;;;;;2.47;2.37;;;;;;;3.35;100.00;100067.00;4953756;28;20171;-70
2023/02/24 00:33:22;;;;;;;8.77;0.63;;;;;;;3.38;100.00;100069.94;4953805;28;20170;-70
2023/02/24 00:35:48;;;;;;;15.03;0.67;;;;;;;3.37;100.00;100062.94;4952250;28;20186;-71
2023/02/24 00:38:14;;;;;;;14.47;2.80;;;;;;;3.37;100.00;100056.72;4953716;28;20182;-70
2023/02/24 00:40:40;;;;;;;10.10;2.63;;;;;;;3.35;100.00;100054.31;4953685;28;20271;-73
2023/02/24 00:43:07;;;;;;;1.53;1.33;;;;;;;3.32;100.00;100048.63;4953466;28;20249;-74
2023/02/24 00:45:36;;;;;;;6.87;2.40;;;;;;;3.29;100.00;100056.19;4953313;28;20186;-73
2023/02/24 00:48:03;;;;;;;0.07;0.07;;;;;;;3.27;100.00;100057.53;4953664;28;20289;-70
2023/02/24 00:50:29;;;;;;;0.27;0.27;;;;;;;3.24;100.00;100058.09;4953514;28;20562;-70
2023/02/24 00:52:55;;;;;;;5.00;1.30;;;;;;;3.18;100.00;100048.38;4953399;28;20174;-71
2023/02/24 00:55:22;;;;;;;6.00;4.23;;;;;;;3.17;100.00;100055.66;4953603;28;20175;-70
2023/02/24 00:57:51;;;;;;;4.97;0.90;;;;;;;3.15;100.00;100054.31;4953224;28;20269;-71
2023/02/24 01:00:18;;;;;;;0.00;0.00;;;;;;;3.16;100.00;100045.94;4953584;28;20189;-71
2023/02/24 01:02:44;;;;;;;5.67;1.67;;;;;;;3.14;100.00;100048.09;4953121;28;20248;-70
2023/02/24 01:05:11;;;;;;;5.40;2.13;;;;;;;3.09;100.00;100047.31;4952905;28;20214;-71
2023/02/24 01:07:36;;;;;;;1.37;1.27;;;;;;;3.08;100.00;100040.31;4953014;28;20237;-70
2023/02/24 01:10:07;;;;;;;9.73;4.10;;;;;;;3.06;100.00;100043.28;4953038;28;20197;-71
2023/02/24 01:12:48;;;;;;;0.30;0.20;;;;;;;3.07;100.00;100034.09;4952883;28;20643;-70
2023/02/24 01:15:19;;;;;;;4.83;1.80;;;;;;;3.09;100.00;100039.22;4952831;28;20171;-71
2023/02/24 01:17:44;;;;;;;15.50;3.10;;;;;;;3.07;100.00;100041.38;4952946;28;20189;-70
2023/02/24 01:20:17;;;;;;;0.47;0.47;;;;;;;3.07;100.00;100033.28;4952994;28;20262;-73
2023/02/24 01:22:56;;;;;;;1.20;0.93;;;;;;;3.03;100.00;100030.31;4952849;28;20202;-72
2023/02/24 01:25:21;;;;;;;6.93;1.50;;;;;;;3.02;100.00;100022.47;4952703;28;20221;-71
2023/02/24 01:27:47;;;;;;;17.43;1.80;;;;;;;3.01;100.00;100034.34;4952800;28;20202;-70
2023/02/24 01:30:14;;;;;;;1.60;1.33;;;;;;;2.99;100.00;100031.94;4952927;28;20225;-70
2023/02/24 01:32:41;;;;;;;8.80;1.80;;;;;;;3.02;100.00;100028.69;4952681;28;20653;-71
2023/02/24 01:35:07;;;;;;;0.33;0.33;;;;;;;3.04;100.00;100026.56;4952098;28;20193;-71
2023/02/24 01:37:33;;;;;;;0.10;0.10;;;;;;;3.02;100.00;100023.28;4952453;28;20481;-70
2023/02/24 01:40:03;;;;;;;0.40;0.40;;;;;;;2.99;100.00;100016.56;4952660;28;20184;-74
2023/02/24 01:42:28;;;;;;;4.40;0.77;;;;;;;3.00;100.00;100017.34;4952599;28;20269;-71
2023/02/24 01:45:12;;;;;;;4.37;0.60;;;;;;;3.01;100.00;100015.47;4952442;28;20607;-70
2023/02/24 01:47:38;;;;;;;12.73;2.23;;;;;;;3.03;100.00;100011.41;4952684;28;20189;-71
2023/02/24 01:50:04;;;;;;;7.93;0.37;;;;;;;2.99;100.00;100005.75;4952381;28;20202;-70
2023/02/24 01:52:35;;;;;;;9.17;1.10;;;;;;;3.01;100.00;100012.78;4952542;28;20207;-70
2023/02/24 01:55:18;;;;;;;4.00;2.03;;;;;;;2.99;100.00;100008.47;4952190;28;20179;-72
2023/02/24 01:57:45;;;;;;;1.93;1.27;;;;;;;2.97;100.00;100004.41;4952860;28;20179;-73
2023/02/24 02:03:06;;;;;;;1.03;0.30;;;;;;;2.94;100.00;99991.47;4952509;28;20223;-71
2023/02/24 02:05:32;;;;;;;5.67;1.50;;;;;;;2.96;100.00;99990.13;4952157;28;20177;-71
2023/02/24 02:07:59;;;;;;;3.87;1.40;;;;;;;2.98;100.00;99987.94;4952417;28;20174;-70
2023/02/24 02:10:27;;;;;;;4.80;2.47;;;;;;;2.98;100.00;99987.94;4952261;28;20175;-70
2023/02/24 02:12:52;;;;;;;4.97;3.00;;;;;;;2.97;100.00;99980.13;4952181;28;20206;-70
2023/02/24 02:15:20;;;;;;;3.27;0.90;;;;;;;2.95;100.00;99969.63;4952080;28;20540;-70
2023/02/24 02:18:01;;;;;;;12.30;1.23;;;;;;;2.97;100.00;99963.94;4952137;28;20182;-70
2023/02/24 02:21:04;;;;;;;1.27;1.17;;;;;;;2.99;100.00;99964.47;4952248;28;20179;-71
2023/02/24 02:23:56;;;;;;;0.70;0.70;;;;;;;2.98;100.00;99963.66;4950792;28;20242;-70
2023/02/24 02:26:43;;;;;;;2.00;1.07;;;;;;;2.97;100.00;99956.66;4950690;28;20186;-71
2023/02/24 02:29:33;;;;;;;1.00;0.87;;;;;;;2.94;100.00;99959.91;4952148;28;20700;-70
2023/02/24 02:32:14;;;;;;;19.07;1.87;;;;;;;2.93;100.00;99950.19;4952263;28;20226;-73
2023/02/24 02:35:05;;;;;;;1.27;1.17;;;;;;;2.91;100.00;99946.97;4951984;28;20327;-73
2023/02/24 02:37:49;;;;;;;2.73;1.37;;;;;;;2.91;100.00;99946.97;4952092;28;20639;-72
2023/02/24 02:40:25;;;;;;;9.63;1.73;;;;;;;2.89;100.00;99930.25;4952204;28;20301;-73
2023/02/24 02:42:53;;;;;;;8.10;1.30;;;;;;;2.91;100.00;99928.09;4952093;28;20210;-73
2023/02/24 02:46:03;;;;;;;0.60;0.60;;;;;;;2.88;100.00;99931.31;4951827;28;20209;-74
2023/02/24 02:48:40;;;;;;;5.17;0.57;;;;;;;2.90;100.00;99917.56;4955558;28;20174;-70
2023/02/24 02:51:10;;;;;;;9.40;1.43;;;;;;;2.89;100.00;99919.47;4955725;28;20653;-71
2023/02/24 02:53:54;;;;;;;6.83;1.07;;;;;;;2.87;100.00;99916.19;4955524;28;20630;-72
2023/02/24 02:56:26;;;;;;;3.30;1.00;;;;;;;2.88;100.00;99914.31;4955374;28;20171;-70
2023/02/24 02:58:54;;;;;;;0.63;0.63;;;;;;;2.89;100.00;99915.94;4955401;28;20693;-70
2023/02/24 03:01:28;;;;;;;4.40;1.10;;;;;;;2.87;100.00;99908.09;4955610;28;20170;-74
2023/02/24 03:04:00;;;;;;;0.00;0.00;;;;;;;2.86;100.00;99903.78;4955456;28;20221;-70
2023/02/24 03:06:29;;;;;;;1.37;0.83;;;;;;;2.85;100.00;99901.38;4955311;28;20179;-70
2023/02/24 03:09:16;;;;;;;3.40;2.43;;;;;;;2.85;100.00;99895.97;4955261;28;20178;-70
2023/02/24 03:11:47;;;;;;;8.07;1.67;;;;;;;2.86;100.00;99890.31;4955339;29;20657;-71
2023/02/24 03:14:15;;;;;;;0.90;0.90;;;;;;;2.88;100.00;99890.84;4955270;28;20218;-70
2023/02/24 03:16:47;;;;;;;9.90;1.13;;;;;;;2.88;100.00;99893.53;4954984;28;20643;-74
2023/02/24 03:19:19;;;;;;;2.33;1.53;;;;;;;2.88;100.00;99890.84;4955055;28;20601;-75
2023/02/24 03:21:52;;;;;;;1.13;0.93;;;;;;;2.86;100.00;99884.91;4954931;28;20167;-73
2023/02/24 03:24:18;;;;;;;3.40;1.07;;;;;;;2.89;100.00;99887.09;4955032;28;20194;-72
2023/02/24 03:26:50;;;;;;;0.50;0.50;;;;;;;2.86;100.00;99881.41;4954926;28;20178;-73
2023/02/24 03:29:38;;;;;;;4.27;1.53;;;;;;;2.86;100.00;99868.72;4954876;28;20193;-73
2023/02/24 03:32:24;;;;;;;9.80;2.47;;;;;;;2.88;100.00;99879.25;4954851;28;20221;-73
2023/02/24 03:34:49;;;;;;;1.17;0.63;;;;;;;2.88;100.00;99860.34;4954528;28;20198;-73
2023/02/24 03:37:14;;;;;;;0.73;0.60;;;;;;;2.90;100.00;99861.72;4954770;28;20181;-72
2023/02/24 03:39:40;;;;;;;10.73;0.63;;;;;;;2.91;100.00;99855.25;4954833;28;20186;-72
2023/02/24 03:42:17;;;;;;;11.90;2.50;;;;;;;2.92;100.00;99861.44;4954800;28;20210;-72
2023/02/24 03:44:44;;;;;;;1.00;1.00;;;;;;;2.89;100.00;99857.41;4954583;28;20179;-73
2023/02/24 03:47:10;;;;;;;1.67;1.43;;;;;;;2.91;100.00;99855.25;4954497;28;20175;-72
2023/02/24 03:49:37;;;;;;;4.23;0.07;;;;;;;2.88;100.00;99858.47;4954662;28;20178;-73
2023/02/24 03:52:08;;;;;;;0.40;0.40;;;;;;;2.84;100.00;99846.63;4954547;28;20178;-72
2023/02/24 03:54:45;;;;;;;0.00;0.00;;;;;;;2.86;100.00;99854.44;4954440;28;20375;-72
2023/02/24 03:57:21;;;;;;;8.03;1.20;;;;;;;2.83;100.00;99853.09;4954335;28;20246;-73
2023/02/24 03:59:51;;;;;;;0.20;0.20;;;;;;;2.82;100.00;99851.47;4954374;28;20178;-73
2023/02/24 04:02:22;;;;;;;0.40;0.40;;;;;;;2.80;100.00;99852.84;4954175;28;20206;-72
2023/02/24 04:04:55;;;;;;;2.77;1.40;;;;;;;2.79;100.00;99852.03;4954166;28;20261;-72
2023/02/24 04:07:41;;;;;;;7.27;0.87;;;;;;;2.76;100.00;99847.19;4954117;28;20189;-72
2023/02/24 04:10:14;;;;;;;1.00;0.53;;;;;;;2.76;100.00;99839.09;4954313;28;20185;-72
2023/02/24 04:12:48;;;;;;;1.00;1.00;;;;;;;2.75;100.00;99837.50;4954227;28;20257;-72
2023/02/24 04:15:36;;;;;;;5.00;0.60;;;;;;;2.72;100.00;99843.41;4953909;28;20179;-72
2023/02/24 04:18:13;;;;;;;8.23;1.87;;;;;;;2.71;100.00;99844.50;4953988;28;20222;-72
2023/02/24 04:20:41;;;;;;;8.97;1.90;;;;;;;2.67;100.00;99832.66;4954104;28;20178;-73
2023/02/24 04:23:13;;;;;;;0.50;0.50;;;;;;;2.65;100.00;99826.72;4954002;28;20281;-73
2023/02/24 04:25:43;;;;;;;0.67;0.67;;;;;;;2.65;100.00;99830.22;4953724;28;20635;-73
2023/02/24 04:28:10;;;;;;;0.10;0.10;;;;;;;2.63;100.00;99823.50;4953880;28;20191;-80
2023/02/24 04:30:41;;;;;;;3.77;0.47;;;;;;;2.62;100.00;99821.88;4953883;28;20587;-78
2023/02/24 04:33:07;;;;;;;0.40;0.30;;;;;;;2.64;100.00;99827.81;4955158;28;20254;-80
2023/02/24 04:35:32;;;;;;;1.43;1.03;;;;;;;2.61;98.93;99814.88;4954021;28;20222;-79
2023/02/24 04:37:59;;;;;;;4.17;1.03;;;;;;;2.64;97.07;99807.03;4953707;28;20273;-78
2023/02/24 04:40:25;;;;;;;0.53;0.47;;;;;;;2.67;96.68;99817.28;4953677;28;20170;-78
2023/02/24 04:42:51;;;;;;;1.30;0.53;;;;;;;2.65;96.30;99819.44;4953381;28;20567;-80
2023/02/24 04:45:23;;;;;;;0.57;0.57;;;;;;;2.62;96.63;99820.00;4953732;28;20183;-80
2023/02/24 04:47:55;;;;;;;0.13;0.13;;;;;;;2.62;96.95;99811.91;4953856;28;20594;-78
2023/02/24 04:50:22;;;;;;;1.23;0.47;;;;;;;2.62;96.92;99816.50;4953536;28;20178;-80
2023/02/24 04:52:56;;;;;;;1.37;1.27;;;;;;;2.61;97.32;99817.59;4953881;28;20563;-80
2023/02/24 04:55:25;;;;;;;2.53;0.17;;;;;;;2.58;96.65;99808.13;4953209;28;20202;-80
2023/02/24 04:57:55;;;;;;;0.50;0.50;;;;;;;2.57;96.34;99808.41;4953559;28;20631;-80
2023/02/24 05:00:25;;;;;;;26.40;0.60;;;;;;;2.55;96.16;99805.19;4953279;28;20543;-81
2023/02/24 05:02:55;;;;;;;0.40;0.37;;;;;;;2.48;96.11;99802.78;4953285;28;20712;-81
2023/02/24 05:05:25;;;;;;;3.50;0.83;;;;;;;2.47;93.44;99798.47;4953139;28;20211;-80
2023/02/24 05:07:51;;;;;;;0.37;0.30;;;;;;;2.45;92.92;99791.72;4951885;28;20178;-77
2023/02/24 05:10:17;;;;;;;1.03;0.70;;;;;;;2.43;92.21;99780.41;4952210;28;20607;-79
2023/02/24 05:12:43;;;;;;;0.00;0.00;;;;;;;2.41;90.92;99774.47;4953197;28;20178;-80
2023/02/24 05:15:11;;;;;;;2.43;1.47;;;;;;;2.39;90.57;99769.38;4953031;28;20179;-80
2023/02/24 05:17:36;;;;;;;2.83;1.17;;;;;;;2.37;90.62;99777.72;4953157;28;20179;-78
2023/02/24 05:22:53;;;;;;;0.13;0.13;;;;;;;2.31;90.78;99762.63;4953082;29;20641;-80
2023/02/24 05:25:19;;;;;;;6.13;1.50;;;;;;;2.30;90.11;99762.91;4952989;28;20528;-80
2023/02/24 05:27:45;;;;;;;9.57;0.27;;;;;;;2.32;89.60;99763.47;4952805;28;20254;-80
2023/02/24 05:30:13;;;;;;;9.77;1.07;;;;;;;2.32;89.51;99758.88;4952885;28;20171;-78
2023/02/24 05:32:39;;;;;;;6.30;1.17;;;;;;;2.31;90.32;99757.25;4951616;28;20179;-78
2023/02/24 05:35:05;;;;;;;1.50;0.63;;;;;;;2.27;88.94;99745.41;4952491;28;20673;-79
2023/02/24 05:37:32;;;;;;;8.13;1.37;;;;;;;2.28;87.53;99743.53;4952653;28;20219;-77
2023/02/24 05:39:59;;;;;;;1.77;0.43;;;;;;;2.28;86.86;99736.25;4952731;28;20225;-81
2023/02/24 05:42:26;;;;;;;1.10;0.57;;;;;;;2.28;86.80;99733.53;4952665;28;20555;-80
2023/02/24 05:44:52;;;;;;;2.70;1.23;;;;;;;2.28;86.90;99725.47;4952613;28;20174;-79
2023/02/24 05:47:18;;;;;;;8.40;2.00;;;;;;;2.27;87.01;99726.53;4953014;28;20299;-78
2023/02/24 05:49:44;;;;;;;7.10;0.90;;;;;;;2.26;87.26;99735.72;4952630;28;20320;-81
2023/02/24 05:52:10;;;;;;;2.63;0.87;;;;;;;2.22;88.17;99721.19;4952522;28;20186;-78
2023/02/24 05:54:41;;;;;;;4.43;1.37;;;;;;;2.21;88.03;99718.75;4952499;28;20647;-74
2023/02/24 05:57:11;;;;;;;4.13;1.70;;;;;;;2.21;87.72;99719.56;4952472;28;20618;-80
2023/02/24 05:59:38;;;;;;;5.73;1.00;;;;;;;2.22;87.02;99715.78;4952632;28;20195;-80
2023/02/24 06:02:07;;;;;;;6.87;1.77;;;;;;;2.21;86.67;99716.88;4952515;28;20182;-78
2023/02/24 06:04:44;;;;;;;1.07;0.80;;;;;;;2.19;86.11;99705.56;4952421;28;20626;-77
2023/02/24 06:07:23;;;;;;;6.17;1.17;;;;;;;2.21;85.69;99691.81;4952492;28;20302;-77
2023/02/24 06:09:52;;;;;;;1.20;0.60;;;;;;;2.20;85.99;99684.81;4953036;28;20190;-78
2023/02/24 06:12:20;;;;;;;1.43;0.70;;;;;;;2.18;86.42;99693.19;4952490;28;20171;-80
2023/02/24 06:14:45;;;;;;;0.40;0.30;;;;;;;2.18;87.02;99692.38;4952081;28;20189;-80
2023/02/24 06:17:13;;;;;;;4.87;0.93;;;;;;;2.16;87.34;99681.03;4952414;28;20175;-78
2023/02/24 06:19:40;;;;;;;9.13;1.63;;;;;;;2.14;88.48;99686.69;4952516;28;20185;-79
2023/02/24 06:22:09;;;;;;;2.13;0.57;;;;;;;2.15;90.19;99676.72;4955048;28;20175;-78
2023/02/24 06:24:36;;;;;;;1.60;1.17;;;;;;;2.14;90.96;99678.63;4956164;28;20182;-78
2023/02/24 06:27:09;;;;;;;3.40;1.30;;;;;;;2.14;91.49;99680.50;4955872;28;20186;-80
2023/02/24 06:29:36;;;;;;;11.13;1.10;;;;;;;2.11;91.97;99673.78;4956000;28;20298;-78
2023/02/24 06:32:07;;;;;;;0.60;0.60;;;;;;;2.09;91.93;99668.69;4955059;28;20529;-79
2023/02/24 06:34:39;;;;;;;5.60;1.07;;;;;;;2.08;92.18;99666.25;4955950;28;20190;-80
2023/02/24 06:37:06;;;;;;;0.70;0.70;;;;;;;2.08;91.98;99653.59;4955841;28;20493;-80
2023/02/24 06:39:33;;;;;;;0.97;0.93;;;;;;;2.10;91.89;99650.63;4956038;28;20193;-79
2023/02/24 06:42:03;;;;;;;8.67;1.93;;;;;;;2.07;91.30;99648.47;4955729;28;20179;-79
2023/02/24 06:44:33;;;;;;;5.57;1.10;;;;;;;2.08;91.22;99640.13;4955798;28;20179;-78
2023/02/24 06:46:59;;;;;;;3.40;2.03;;;;;;;2.07;90.71;99635.00;4955616;28;20184;-80
2023/02/24 06:49:25;;;;;;;26.30;4.07;;;;;;;2.08;90.46;99633.94;4956148;28;20257;-79
2023/02/24 06:51:53;;;;;;;7.33;1.10;;;;;;;2.06;90.22;99633.41;4955929;28;20226;-80
2023/02/24 06:54:21;;;;;;;2.43;0.93;;;;;;;2.06;89.60;99620.75;4955753;28;20702;-79
2023/02/24 06:56:48;;;;;;;5.30;0.80;;;;;;;2.06;89.37;99623.44;4955401;28;20638;-77
2023/02/24 06:59:20;;;;;;;7.33;0.90;;;;;;;2.06;89.14;99623.44;4955596;28;20186;-79
2023/02/24 07:01:48;;;;;;;2.77;0.40;;;;;;;2.08;88.95;99620.47;4955638;28;20653;-78
2023/02/24 07:06:41;;;;;;;1.60;0.60;;;;;;;2.12;88.29;99608.03;4955651;28;20663;-79
2023/02/24 07:09:10;;;;;;;0.40;0.40;;;;;;;2.12;87.98;99608.03;4955349;28;20183;-76
2023/02/24 07:11:37;;;;;;;0.47;0.47;;;;;;;2.13;88.11;99604.25;4955302;28;20666;-80
2023/02/24 07:14:06;;;;;;;2.00;0.93;;;;;;;2.16;87.53;99611.78;4955560;28;20603;-77
2023/02/24 07:16:33;;;;;;;0.97;0.43;;;;;;;2.16;87.36;99614.47;4955163;28;20189;-79
2023/02/24 07:19:02;;;;;;;4.13;0.87;;;;;;;2.17;86.86;99608.03;4955430;28;20183;-79
2023/02/24 07:21:29;;;;;;;0.27;0.20;;;;;;;2.18;87.06;99595.38;4955349;28;20185;-79
2023/02/24 07:23:56;;;;;;;1.57;0.80;;;;;;;2.18;87.38;99598.06;4955285;28;20289;-74
2023/02/24 07:26:24;;;;;;;5.07;1.37;;;;;;;2.19;86.44;99589.69;4955062;28;20296;-81
2023/02/24 07:28:53;;;;;;;2.27;1.13;;;;;;;2.21;86.19;99589.41;4955186;28;20225;-79
2023/02/24 07:31:21;;;;;;;0.20;0.10;;;;;;;2.21;85.98;99584.84;4955234;28;20178;-78
2023/02/24 07:33:47;;;;;;;0.67;0.50;;;;;;;2.23;86.45;99587.25;4961906;28;20193;-83
2023/02/24 07:36:14;;;;;;;0.97;0.80;;;;;;;2.25;86.02;99579.69;4974098;28;20593;-85
2023/02/24 07:38:41;;;;;;;0.20;0.20;;;;;;;2.22;86.42;99567.59;4974193;28;20182;-84
2023/02/24 07:41:11;;;;;;;0.40;0.40;;;;;;;2.24;86.64;99568.09;4974343;28;20189;-87
2023/02/24 07:43:38;;;;;;;2.90;0.60;;;;;;;2.26;86.12;99563.25;4974152;28;20282;-84
2023/02/24 07:46:15;;;;;;;0.40;0.40;;;;;;;2.28;85.88;99561.06;4955807;28;20178;-84
2023/02/24 07:48:41;;;;;;;10.53;1.30;;;;;;;2.28;86.31;99552.19;4954911;28;20336;-79
2023/02/24 07:51:07;;;;;;;1.30;0.43;;;;;;;2.28;86.07;99541.41;4955063;28;20212;-79
2023/02/24 07:53:33;;;;;;;9.67;1.23;;;;;;;2.30;85.79;99531.94;4954819;28;20179;-79
2023/02/24 07:55:59;;;;;;;4.70;0.60;;;;;;;2.33;85.92;99536.81;4954455;28;20271;-78
2023/02/24 07:58:24;;;;;;;2.00;0.53;;;;;;;2.34;85.82;99533.03;4954694;28;20270;-75
2023/02/24 08:00:58;;;;;;;1.40;0.37;;;;;;;2.38;86.36;99528.66;4954655;28;20245;-80
2023/02/24 08:03:26;;;;;;;2.83;2.03;;;;;;;2.37;86.30;99518.97;4954465;28;20214;-78
2023/02/24 08:05:54;;;;;;;16.30;0.87;;;;;;;2.38;86.42;99535.97;4954390;28;20205;-80
2023/02/24 08:08:19;;;;;;;1.13;0.70;;;;;;;2.39;86.71;99526.78;4954454;28;20722;-79
2023/02/24 08:10:46;;;;;;;3.97;0.70;;;;;;;2.38;87.13;99523.28;4954754;28;20274;-78
2023/02/24 08:13:11;;;;;;;0.73;0.20;;;;;;;2.39;87.28;99516.00;4954718;28;20181;-79
2023/02/24 08:15:36;;;;;;;8.93;0.67;;;;;;;2.38;87.11;99506.31;4954848;28;20540;-71
2023/02/24 08:18:02;;;;;;;3.67;0.70;;;;;;;2.40;87.50;99512.22;4955985;28;20292;-72
2023/02/24 08:20:50;;;;;;;7.70;1.10;;;;;;;2.42;86.58;99503.84;4957919;28;20662;-71
2023/02/24 08:23:17;;;;;;;2.97;1.27;;;;;;;2.43;85.79;99489.28;4955468;28;20277;-71
2023/02/24 08:25:43;;;;;;;0.37;0.37;;;;;;;2.43;85.83;99482.00;4954405;28;20646;-72
2023/02/24 08:28:10;;;;;;;0.33;0.10;;;;;;;2.43;85.73;99483.91;4954355;28;20175;-71
2023/02/24 08:30:38;;;;;;;7.53;0.97;;;;;;;2.43;86.03;99479.31;4954246;28;20174;-72
2023/02/24 08:33:06;;;;;;;0.13;0.13;;;;;;;2.45;85.57;99468.25;4954239;28;20584;-71
2023/02/24 08:35:34;;;;;;;2.07;0.90;;;;;;;2.46;85.55;99472.53;4954025;28;20556;-71
2023/02/24 08:38:06;;;;;;;2.83;1.90;;;;;;;2.46;85.30;99465.28;4953973;28;20194;-73
2023/02/24 08:43:29;;;;;;;6.33;0.77;;;;;;;2.51;85.73;99462.53;4954113;28;20194;-71
2023/02/24 08:46:16;;;;;;;8.40;1.30;;;;;;;2.53;85.65;99451.47;4952969;28;20163;-72
2023/02/24 08:48:45;;;;;;;2.33;0.77;;;;;;;2.52;85.85;99456.06;4954041;28;20185;-72
2023/02/24 08:51:20;;;;;;;3.70;0.87;;;;;;;2.49;85.44;99451.25;4953873;28;20171;-72
2023/02/24 08:53:48;;;;;;;2.17;1.00;;;;;;;2.51;85.28;99442.88;4954026;29;20205;-71
2023/02/24 08:56:22;;;;;;;9.03;1.43;;;;;;;2.51;85.74;99445.56;4953623;28;20706;-72
2023/02/24 08:58:49;;;;;;;3.83;0.43;;;;;;;2.50;86.22;99439.38;4953794;28;20197;-71
2023/02/24 09:01:24;;;;;;;4.13;0.97;;;;;;;2.52;86.35;99437.19;4952344;28;20638;-71
2023/02/24 09:03:56;;;;;;;1.63;0.70;;;;;;;2.50;86.58;99439.38;4953604;28;20220;-72
2023/02/24 09:06:32;;;;;;;0.80;0.70;;;;;;;2.50;86.44;99425.09;4953479;28;20654;-72
2023/02/24 09:09:16;;;;;;;1.93;1.33;;;;;;;2.53;86.75;99428.00;4953682;28;20198;-72
2023/02/24 09:11:43;;;;;;;2.90;1.13;;;;;;;2.53;87.46;99429.91;4972161;28;20252;-72
2023/02/24 09:14:19;;;;;;;1.40;0.80;;;;;;;2.53;87.29;99429.91;4972776;28;20193;-71
2023/02/24 09:17:02;;;;;;;6.47;0.83;;;;;;;2.48;86.80;99422.69;4972991;28;20217;-71
2023/02/24 09:20:54;;;;;;;4.30;1.57;;;;;;;2.46;87.66;99418.63;4964612;28;20511;-72
2023/02/24 09:22:32;;;;;;;2.00;1.03;;;;;;;2.33;88.96;99412.84;4953007;29;20305;-71
2023/02/24 09:25:16;;;;;;;5.17;1.40;;;;;;;2.28;90.49;99417.44;4953195;28;20166;-72
2023/02/24 09:27:50;;;;;;;8.73;1.30;;;;;;;2.19;91.83;99422.66;4953179;28;20536;-71
2023/02/24 09:30:35;;;;;;;3.30;1.53;;;;;;;2.15;93.40;99415.38;4953151;28;20174;-71
2023/02/24 09:33:37;;;;;;;2.03;1.20;;;;;;;2.09;94.75;99411.94;4953199;28;20229;-72
2023/02/24 09:36:11;;;;;;;5.93;1.03;;;;;;;2.05;96.03;99406.31;4953852;28;20197;-77
2023/02/24 09:41:54;;;;;;;1.97;1.23;;;;;;;2.03;97.67;99394.22;4953351;28;20202;-73
2023/02/24 09:44:33;;;;;;;2.57;1.03;;;;;;;2.03;98.25;99381.56;4962682;28;20616;-74
2023/02/24 09:47:29;;;;;;;2.40;1.10;;;;;;;1.98;98.76;99370.00;4952815;28;20183;-76
2023/02/24 09:49:59;;;;;;;3.23;1.40;;;;;;;1.95;99.26;99376.75;4961084;28;20184;-72
2023/02/24 09:52:40;;;;;;;6.70;1.10;;;;;;;1.95;100.00;99368.66;4963459;28;20665;-72
2023/02/24 09:55:59;;;;;;;7.77;1.03;;;;;;;1.94;100.00;99358.19;4959653;28;20580;-74
2023/02/24 09:58:48;;;;;;;3.00;2.07;;;;;;;1.96;100.00;99350.63;4956282;28;20664;-74
2023/02/24 10:01:32;;;;;;;9.07;1.33;;;;;;;1.94;100.00;99352.78;4957757;28;20224;-72
2023/02/24 10:04:47;;;;;;;2.43;0.50;;;;;;;1.94;100.00;99336.63;4952569;28;20240;-73
2023/02/24 10:07:17;;;;;;;8.40;1.13;;;;;;;1.95;100.00;99340.94;4952782;28;20182;-73
2023/02/24 10:09:49;;;;;;;1.10;0.90;;;;;;;1.97;100.00;99342.25;4952620;28;20266;-74
2023/02/24 10:12:17;;;;;;;8.93;1.63;;;;;;;1.96;100.00;99329.88;4951355;29;20183;-71
2023/02/24 10:14:52;;;;;;;11.23;1.73;;;;;;;2.00;100.00;99330.91;4952474;28;20198;-76
2023/02/24 10:17:23;;;;;;;6.50;1.57;;;;;;;1.98;100.00;99319.63;4952864;29;20181;-74
2023/02/24 10:20:01;;;;;;;0.80;0.80;;;;;;;2.01;100.00;99318.25;4952670;28;20210;-72
2023/02/24 10:22:39;;;;;;;11.57;2.33;;;;;;;2.00;100.00;99312.06;4952447;28;20218;-72
2023/02/24 10:25:26;;;;;;;1.20;0.90;;;;;;;1.97;100.00;99301.06;4952348;28;20256;-77
2023/02/24 10:28:34;;;;;;;2.43;2.23;;;;;;;1.94;100.00;99298.94;4952484;28;20635;-72
2023/02/24 10:31:26;;;;;;;3.20;1.30;;;;;;;1.90;100.00;99292.50;4951282;29;20372;-72
2023/02/24 10:34:04;;;;;;;14.00;1.17;;;;;;;1.89;100.00;99286.31;4952536;28;20261;-71
2023/02/24 10:36:36;;;;;;;2.77;1.87;;;;;;;1.89;100.00;99280.13;4952172;28;20218;-71
2023/02/24 10:39:14;;;;;;;3.73;2.13;;;;;;;1.84;100.00;99277.47;4952375;28;20182;-74
2023/02/24 10:42:16;;;;;;;5.63;1.57;;;;;;;1.86;100.00;99269.91;4952246;28;20193;-71
2023/02/24 10:44:50;;;;;;;1.63;1.20;;;;;;;1.87;100.00;99263.44;4963814;28;20202;-72
2023/02/24 10:47:19;;;;;;;6.13;0.83;;;;;;;1.90;100.00;99258.31;4952288;28;20182;-75
2023/02/24 10:49:58;;;;;;;3.23;1.87;;;;;;;1.90;100.00;99258.31;4952112;28;20187;-77
2023/02/24 10:58:36;;;;;;;1.13;1.10;;;;;;;1.88;100.00;99243.50;4952106;28;20186;-73
2023/02/24 11:01:19;;;;;;;6.70;1.53;;;;;;;1.83;100.00;99232.78;4951047;28;20179;-77
2023/02/24 11:04:00;;;;;;;5.90;0.97;;;;;;;1.78;100.00;99226.38;4952030;28;20216;-78
2023/02/24 11:06:51;;;;;;;1.93;1.43;;;;;;;1.72;100.00;99219.41;4951885;28;20210;-74
2023/02/24 11:09:30;;;;;;;10.13;1.67;;;;;;;1.71;100.00;99201.66;4954982;28;20206;-76
2023/02/24 11:17:58;;;;;;;5.33;2.17;;;;;;;1.84;100.00;99172.44;4955789;29;20186;-84
2023/02/24 11:20:35;;;;;;;3.60;1.80;;;;;;;1.89;100.00;99183.19;4954206;28;20512;-84
2023/02/24 11:23:03;;;;;;;4.83;2.60;;;;;;;1.90;100.00;99171.31;4955426;28;20202;-84
2023/02/24 11:25:38;;;;;;;6.27;2.23;;;;;;;1.91;100.00;99167.53;4955133;28;20182;-80
2023/02/24 11:28:15;;;;;;;3.40;1.30;;;;;;;1.96;100.00;99162.09;4955369;28;20688;-81
2023/02/24 11:30:53;;;;;;;1.93;1.80;;;;;;;1.92;100.00;99153.00;4955418;28;20241;-83
2023/02/24 11:33:39;;;;;;;4.37;1.30;;;;;;;1.91;100.00;99148.69;4955276;28;20274;-82
2023/02/24 11:36:15;;;;;;;1.23;1.13;;;;;;;1.85;100.00;99147.13;4955158;28;20182;-85
2023/02/24 11:39:15;;;;;;;2.40;2.20;;;;;;;1.87;100.00;99136.88;4955040;28;20178;-85
2023/02/24 11:41:46;;;;;;;6.27;2.27;;;;;;;1.79;100.00;99122.16;4955614;28;20179;-81
2023/02/24 11:44:39;;;;;;;2.50;1.57;;;;;;;1.82;100.00;99112.69;4954898;28;20206;-81
2023/02/24 11:47:10;;;;;;;5.40;3.67;;;;;;;1.76;100.00;99098.50;4954805;28;20217;-85
2023/02/24 11:49:47;;;;;;;3.83;2.77;;;;;;;1.76;100.00;99101.19;4954945;28;20635;-82
2023/02/24 11:52:19;;;;;;;2.97;2.27;;;;;;;1.71;100.00;99091.28;4960774;28;20178;-78
2023/02/24 11:54:52;;;;;;;6.30;2.67;;;;;;;1.67;100.00;99084.06;4974039;28;20170;-84
2023/02/24 11:57:53;;;;;;;3.07;2.57;;;;;;;1.71;100.00;99082.38;4973239;28;20450;-85
2023/02/24 12:00:23;;;;;;;5.23;3.03;;;;;;;1.70;100.00;99078.09;4947168;28;20629;-84
2023/02/24 12:03:03;;;;;;;3.53;3.23;;;;;;;1.68;100.00;99075.69;4954528;28;20230;-84
2023/02/24 12:05:42;;;;;;;2.83;2.50;;;;;;;1.65;100.00;99057.44;4954286;28;20230;-79
2023/02/24 12:08:22;;;;;;;3.40;2.93;;;;;;;1.64;100.00;99058.53;4954664;28;20186;-87
2023/02/24 12:11:02;;;;;;;6.77;5.03;;;;;;;1.64;100.00;99057.72;4954571;28;20527;-78
2023/02/24 12:13:52;;;;;;;4.07;3.77;;;;;;;1.59;100.00;99047.81;4954460;28;20182;-84
2023/02/24 12:16:39;;;;;;;3.90;3.60;;;;;;;1.59;100.00;99042.44;4953009;28;20681;-83
2023/02/24 12:19:22;;;;;;;3.13;2.93;;;;;;;1.60;100.00;99035.16;4954317;28;20646;-83
2023/02/24 12:21:57;;;;;;;5.40;3.23;;;;;;;1.60;100.00;99021.72;4954413;28;20843;-80
2023/02/24 12:24:22;;;;;;;5.17;4.67;;;;;;;1.57;100.00;99020.38;4954074;28;20206;-78
2023/02/24 12:27:02;;;;;;;8.87;3.47;;;;;;;1.56;100.00;99016.06;4952800;29;20538;-85